Washington — WDC3825 — position and weather

sailwx.info

Track history (hours):
 
Tides and Currents Weather Stations Pressure Air Temp Water Temp Dewpoint Dewpoint Depression Visibility Wind Speed Wind Dir Waves Ship Positions

Washington

Owner: Peoria Harbor Service, Creve Coeur, IL. More information available from US FCC via Universal Licensing System.

Last reported at 2015-Apr-06 17:11 UTC. Time now 2015-Apr-21 02:59 UTC.
Position N 45°34' W 122°44'.
Warning: this ship's position is 14 days out of date.

Length 29 m; draft 5 m.

Type: Tug. MMSI: 367530040.

Date/timePositionNaut miles runAvg speedWind from/ knotsBaromVisibWave heightAir tempDewpointWater temp
2015-Apr-06 17:11N 45°34' W 122°44'0 0.0
2015-Apr-06 16:33N 45°34' W 122°44'1 1.3
2015-Apr-06 15:33N 45°35' W 122°45'4 4.0
2015-Apr-06 14:33N 45°39' W 122°45'0 0.0
2015-Apr-06 13:34N 45°39' W 122°45'0 0.0
2015-Apr-06 12:34N 45°39' W 122°45'0 0.0
2015-Apr-06 11:33N 45°39' W 122°45'0 0.0
2015-Apr-06 10:30N 45°39' W 122°45'0 0.0
2015-Apr-06 09:33N 45°39' W 122°45'0 0.0
2015-Apr-06 08:33N 45°39' W 122°45'0 0.0
2015-Apr-06 07:33N 45°39' W 122°45'0 0.0
2015-Apr-06 06:33N 45°39' W 122°45'0 0.0
2015-Apr-06 05:33N 45°39' W 122°45'0 0.0
2015-Apr-06 04:33N 45°39' W 122°45'0 0.0
2015-Apr-06 03:34N 45°39' W 122°45'0 0.0
2015-Apr-06 02:33N 45°39' W 122°45'0 0.0
2015-Apr-06 01:33N 45°39' W 122°45'1 1.5
2015-Apr-06 00:34N 45°38' W 122°43'1 0.5
2015-Apr-05 23:33N 45°39' W 122°44'1 1.0
2015-Apr-05 22:34N 45°39' W 122°45'3 2.5
2015-Apr-05 21:34N 45°38' W 122°42'2 1.8
2015-Apr-05 20:33N 45°39' W 122°44'1 0.8
2015-Apr-05 19:33N 45°39' W 122°45'0 0.0
2015-Apr-05 18:33N 45°39' W 122°45'0 0.0
2015-Apr-05 17:33N 45°39' W 122°45'0 0.0
2015-Apr-05 16:33N 45°39' W 122°45'0 0.0
2015-Apr-05 15:33N 45°39' W 122°45'0 0.0
2015-Apr-05 14:33N 45°39' W 122°45'0 0.0
2015-Apr-05 13:33N 45°39' W 122°45'0 0.0
2015-Apr-05 12:33N 45°39' W 122°45'0 0.0
2015-Apr-05 11:33N 45°39' W 122°45'0 0.0
2015-Apr-05 10:33N 45°39' W 122°45'0 0.0
2015-Apr-05 09:33N 45°39' W 122°45'0 0.0
2015-Apr-05 08:33N 45°39' W 122°45'0 0.0
2015-Apr-05 07:33N 45°39' W 122°45'0 0.0
2015-Apr-05 06:33N 45°39' W 122°45'0 0.0
2015-Apr-05 05:33N 45°39' W 122°45'0 0.0
2015-Apr-05 04:33N 45°39' W 122°45'0 0.0
2015-Apr-05 03:33N 45°39' W 122°45'0 0.0
2015-Apr-05 02:33N 45°39' W 122°45'0 0.0
2015-Apr-05 01:33N 45°39' W 122°45'0 0.0
2015-Apr-05 00:33N 45°39' W 122°45'0 0.0
2015-Apr-04 23:33N 45°39' W 122°45'1 1.4
2015-Apr-04 22:33N 45°38' W 122°43'1 1.4
2015-Apr-04 21:33N 45°39' W 122°45'0 0.0
2015-Apr-04 20:33N 45°39' W 122°45'0 0.0
2015-Apr-04 19:33N 45°39' W 122°45'0 0.0
2015-Apr-04 18:33N 45°39' W 122°45'0 0.0
2015-Apr-04 17:33N 45°39' W 122°45'0 0.0
2015-Apr-04 16:33N 45°39' W 122°45'0 0.0
2015-Apr-04 15:33N 45°39' W 122°45'0 0.0
2015-Apr-04 14:33N 45°39' W 122°45'0 0.0
2015-Apr-04 13:34N 45°39' W 122°45'0 0.0
2015-Apr-04 12:33N 45°39' W 122°45'0 0.0
2015-Apr-04 11:33N 45°39' W 122°45'0 0.0
2015-Apr-04 10:33N 45°39' W 122°45'0 0.0
2015-Apr-04 09:33N 45°39' W 122°45'0 0.0
2015-Apr-04 08:33N 45°39' W 122°45'0 0.0
2015-Apr-04 07:33N 45°39' W 122°45'0 0.0
2015-Apr-04 06:33N 45°39' W 122°45'0 0.0
2015-Apr-04 05:33N 45°39' W 122°45'0 0.0
2015-Apr-04 04:32N 45°39' W 122°45'0 0.0
2015-Apr-04 03:33N 45°39' W 122°45'0 0.0
2015-Apr-04 02:33N 45°39' W 122°45'0 0.0
2015-Apr-04 01:33N 45°39' W 122°45'0 0.0
2015-Apr-04 00:33N 45°39' W 122°45'0 0.0
2015-Apr-03 23:33N 45°39' W 122°45'0 0.0
2015-Apr-03 22:33N 45°39' W 122°45'0 0.0
2015-Apr-03 21:33N 45°39' W 122°45'0 0.0
2015-Apr-03 20:33N 45°39' W 122°45'0 0.0
2015-Apr-03 19:33N 45°39' W 122°45'0 0.0
2015-Apr-03 18:33N 45°39' W 122°45'0 0.0
2015-Apr-03 17:33N 45°39' W 122°45'0 0.0
2015-Apr-03 16:33N 45°39' W 122°45'0 0.0
2015-Apr-03 15:33N 45°39' W 122°45'0 0.0
2015-Apr-03 14:33N 45°39' W 122°45'0 0.0
2015-Apr-03 13:33N 45°39' W 122°45'0 0.0
2015-Apr-03 12:33N 45°39' W 122°45'0 0.0
2015-Apr-03 11:33N 45°39' W 122°45'0 0.0
2015-Apr-03 10:33N 45°39' W 122°45'0 0.0
2015-Apr-03 09:33N 45°39' W 122°45'0 0.0
2015-Apr-03 08:33N 45°39' W 122°45'0 0.0
2015-Apr-03 07:33N 45°39' W 122°45'0 0.0
2015-Apr-03 06:33N 45°39' W 122°45'0 0.0
2015-Apr-03 05:33N 45°39' W 122°45'0 0.0
2015-Apr-03 04:33N 45°39' W 122°45'0 0.0
2015-Apr-03 03:33N 45°39' W 122°45'0 0.0
2015-Apr-03 02:33N 45°39' W 122°45'0 0.0
2015-Apr-03 01:33N 45°39' W 122°45'0 0.0
2015-Apr-03 00:33N 45°39' W 122°45'0 0.0
2015-Apr-02 23:33N 45°39' W 122°45'0 0.0
2015-Apr-02 22:33N 45°39' W 122°45'0 0.0
2015-Apr-02 21:33N 45°39' W 122°45'0 0.0
2015-Apr-02 20:33N 45°39' W 122°45'0 0.0
2015-Apr-02 19:33N 45°39' W 122°45'0 0.0
2015-Apr-02 18:33N 45°39' W 122°45'0 0.0
2015-Apr-02 17:33N 45°39' W 122°45'0 0.0
2015-Apr-02 16:33N 45°39' W 122°45'0 0.0
2015-Apr-02 15:33N 45°39' W 122°45'0 0.0
2015-Apr-02 14:33N 45°39' W 122°45'0 0.0
2015-Apr-02 13:33N 45°39' W 122°45'0 0.0
2015-Apr-02 12:33N 45°39' W 122°45'0 0.0
2015-Apr-02 11:33N 45°39' W 122°45'0 0.0
2015-Apr-02 10:33N 45°39' W 122°45'0 0.0
2015-Apr-02 09:33N 45°39' W 122°45'0 0.0
2015-Apr-02 08:33N 45°39' W 122°45'0 0.0
2015-Apr-02 07:33N 45°39' W 122°45'0 0.0
2015-Apr-02 06:33N 45°39' W 122°45'0 0.0
2015-Apr-02 05:33N 45°39' W 122°45'0 0.0
2015-Apr-02 04:33N 45°39' W 122°45'0 0.0
2015-Apr-02 03:33N 45°39' W 122°45'0 0.0
2015-Apr-02 02:33N 45°39' W 122°45'0 0.0
2015-Apr-02 01:33N 45°39' W 122°45'0 0.0
2015-Apr-02 00:33N 45°39' W 122°45'0 0.0
2015-Apr-01 23:34N 45°39' W 122°45'0 0.0
2015-Apr-01 22:33N 45°39' W 122°45'0 0.0
2015-Apr-01 21:34N 45°39' W 122°45'0 0.0
2015-Apr-01 20:33N 45°39' W 122°45'0 0.0
2015-Apr-01 19:33N 45°39' W 122°45'0 0.0
2015-Apr-01 18:33N 45°39' W 122°45'0 0.0
2015-Apr-01 17:33N 45°39' W 122°45'0 0.0
2015-Apr-01 16:33N 45°39' W 122°45'0 0.0
2015-Apr-01 15:33N 45°39' W 122°45'0 0.0
2015-Apr-01 14:33N 45°39' W 122°45'0 0.0
2015-Apr-01 13:33N 45°39' W 122°45'0 0.0
2015-Apr-01 12:33N 45°39' W 122°45'0 0.0
2015-Apr-01 11:33N 45°39' W 122°45'0 0.0
2015-Apr-01 10:33N 45°39' W 122°45'0 0.0
2015-Apr-01 09:33N 45°39' W 122°45'0 0.0
2015-Apr-01 08:33N 45°39' W 122°45'0 0.0
2015-Apr-01 07:33N 45°39' W 122°45'0 0.0
2015-Apr-01 06:33N 45°39' W 122°45'0 0.0
2015-Apr-01 05:33N 45°39' W 122°45'0 0.0
2015-Apr-01 04:33N 45°39' W 122°45'0 0.0
2015-Apr-01 03:33N 45°39' W 122°45'0 0.0
2015-Apr-01 02:33N 45°39' W 122°45'0 0.0
2015-Apr-01 01:33N 45°39' W 122°45'0 0.0
2015-Apr-01 00:33N 45°39' W 122°45'0 0.0
2015-Mar-31 23:33N 45°39' W 122°45'0 0.0
2015-Mar-31 22:33N 45°39' W 122°45'0 0.0
2015-Mar-31 21:33N 45°39' W 122°45'0 0.0
2015-Mar-31 20:33N 45°39' W 122°45'0 0.0
2015-Mar-31 19:33N 45°39' W 122°45'0 0.0
2015-Mar-31 18:33N 45°39' W 122°45'0 0.0
2015-Mar-31 17:33N 45°39' W 122°45'0 0.0
2015-Mar-31 16:33N 45°39' W 122°45'0 0.0
2015-Mar-31 15:33N 45°39' W 122°45'0 0.1
2015-Mar-31 14:33N 45°39' W 122°45'2 2.1
2015-Mar-31 13:33N 45°38' W 122°42'2 2.1
2015-Mar-31 12:33N 45°39' W 122°45'0 0.0
2015-Mar-31 11:33N 45°39' W 122°45'0 0.0
2015-Mar-31 10:33N 45°39' W 122°45'0 0.0
2015-Mar-31 09:33N 45°39' W 122°45'0 0.0
2015-Mar-31 08:33N 45°39' W 122°45'0 0.0
2015-Mar-31 07:33N 45°39' W 122°45'0 0.0
2015-Mar-31 06:33N 45°39' W 122°45'0 0.0
2015-Mar-31 05:33N 45°39' W 122°45'0 0.0
2015-Mar-31 04:33N 45°39' W 122°45'0 0.0
2015-Mar-31 03:33N 45°39' W 122°45'0 0.0
2015-Mar-31 02:33N 45°39' W 122°45'0 0.0
2015-Mar-31 01:33N 45°39' W 122°45'0 0.0
2015-Mar-31 00:33N 45°39' W 122°45'0 0.0
2015-Mar-30 23:33N 45°39' W 122°45'0 0.0
2015-Mar-30 22:33N 45°39' W 122°45'0 0.0
2015-Mar-30 21:33N 45°39' W 122°45'0 0.0
2015-Mar-30 20:33N 45°39' W 122°45'0 0.0
2015-Mar-30 19:33N 45°39' W 122°45'0 0.0
2015-Mar-30 18:33N 45°39' W 122°45'0 0.0
2015-Mar-30 17:33N 45°39' W 122°45'0 0.0
2015-Mar-30 16:33N 45°39' W 122°45'0 0.0
2015-Mar-30 15:33N 45°39' W 122°45'0 0.0
2015-Mar-30 14:33N 45°39' W 122°45'0 0.0
2015-Mar-30 13:33N 45°39' W 122°45'0 0.0
2015-Mar-30 12:33N 45°39' W 122°45'0 0.0
2015-Mar-30 11:33N 45°39' W 122°45'0 0.0
2015-Mar-30 10:33N 45°39' W 122°45'0 0.0
2015-Mar-30 09:33N 45°39' W 122°45'0 0.0
2015-Mar-30 08:33N 45°39' W 122°45'0 0.0
2015-Mar-30 07:33N 45°39' W 122°45'0 0.0
2015-Mar-30 06:33N 45°39' W 122°45'0 0.3
2015-Mar-30 05:33N 45°39' W 122°45'1 1.3
2015-Mar-30 04:33N 45°38' W 122°47'1 1.2
2015-Mar-30 03:33N 45°39' W 122°45'0 0.0
2015-Mar-30 02:33N 45°39' W 122°45'0 0.0
2015-Mar-30 01:33N 45°39' W 122°45'0 0.0
2015-Mar-30 00:33N 45°39' W 122°45'0 0.0
2015-Mar-29 23:33N 45°39' W 122°45'0 0.0
2015-Mar-29 22:33N 45°39' W 122°45'0 0.0
2015-Mar-29 21:33N 45°39' W 122°45'0 0.0
2015-Mar-29 20:33N 45°39' W 122°45'0 0.0
2015-Mar-29 19:33N 45°39' W 122°45'0 0.0
2015-Mar-29 18:33N 45°39' W 122°45'0 0.0
2015-Mar-29 17:33N 45°39' W 122°45'0 0.0
2015-Mar-29 16:33N 45°39' W 122°45'0 0.0
2015-Mar-29 15:33N 45°39' W 122°45'0 0.0
2015-Mar-29 14:33N 45°39' W 122°45'0 0.0
2015-Mar-29 13:33N 45°39' W 122°45'0 0.0
2015-Mar-29 12:33N 45°39' W 122°45'0 0.0
2015-Mar-29 11:33N 45°39' W 122°45'0 0.0
2015-Mar-29 10:33N 45°39' W 122°45'0 0.0
2015-Mar-29 09:33N 45°39' W 122°45'0 0.0
2015-Mar-29 08:33N 45°39' W 122°45'0 0.0
2015-Mar-29 07:33N 45°39' W 122°45'0 0.0
2015-Mar-29 06:33N 45°39' W 122°45'0 0.0
2015-Mar-29 05:33N 45°39' W 122°45'0 0.0
2015-Mar-29 04:33N 45°39' W 122°45'0 0.0
2015-Mar-29 03:33N 45°39' W 122°45'0 0.0
2015-Mar-29 02:33N 45°39' W 122°45'2 2.5
2015-Mar-29 01:33N 45°38' W 122°42'2 1.9
2015-Mar-29 00:33N 45°39' W 122°44'1 0.6
2015-Mar-28 23:33N 45°39' W 122°45'0 0.0
2015-Mar-28 22:33N 45°39' W 122°45'0 0.0
2015-Mar-28 21:33N 45°39' W 122°45'0 0.0
2015-Mar-28 20:33N 45°39' W 122°45'0 0.0
2015-Mar-28 19:33N 45°39' W 122°45'0 0.0
2015-Mar-28 18:33N 45°39' W 122°45'0 0.0
2015-Mar-28 17:33N 45°39' W 122°45'0 0.0
2015-Mar-28 16:33N 45°39' W 122°45'0 0.0
2015-Mar-28 15:33N 45°39' W 122°45'1 0.9
2015-Mar-28 14:33N 45°39' W 122°46'1 0.8
2015-Mar-28 13:33N 45°39' W 122°45'0 0.0
2015-Mar-28 12:33N 45°39' W 122°45'0 0.0
2015-Mar-28 11:33N 45°39' W 122°45'0 0.0
2015-Mar-28 10:33N 45°39' W 122°45'0 0.0
2015-Mar-28 09:33N 45°39' W 122°45'0 0.0
2015-Mar-28 08:33N 45°39' W 122°45'0 0.0
2015-Mar-28 07:33N 45°39' W 122°45'0 0.0
2015-Mar-28 06:33N 45°39' W 122°45'0 0.0
2015-Mar-28 05:33N 45°39' W 122°45'0 0.0
2015-Mar-28 04:33N 45°39' W 122°45'0 0.0
2015-Mar-28 03:33N 45°39' W 122°45'0 0.0
2015-Mar-28 02:33N 45°39' W 122°45'0 0.0
2015-Mar-28 01:33N 45°39' W 122°45'0 0.0
2015-Mar-28 00:33N 45°39' W 122°45'0 0.0
2015-Mar-27 23:33N 45°39' W 122°45'0 0.0
2015-Mar-27 22:33N 45°39' W 122°45'0 0.0
2015-Mar-27 21:33N 45°39' W 122°45'0 0.0
2015-Mar-27 20:33N 45°39' W 122°45'0 0.0
2015-Mar-27 19:33N 45°39' W 122°45'0 0.0
2015-Mar-27 18:33N 45°39' W 122°45'0 0.0
2015-Mar-27 17:33N 45°39' W 122°45'  
Track history (hours):
 
Tides and Currents Weather Stations Pressure Air Temp Water Temp Dewpoint Dewpoint Depression Visibility Wind Speed Wind Dir Waves Ship Positions

Washington

Owner: Peoria Harbor Service, Creve Coeur, IL. More information available from US FCC via Universal Licensing System.

Last reported at 2015-Apr-06 17:11 UTC. Time now 2015-Apr-21 02:59 UTC.
Position N 45°34' W 122°44'.
Warning: this ship's position is 14 days out of date.

Length 29 m; draft 5 m.

Type: Tug. MMSI: 367530040.

Date/timePositionNaut miles runAvg speedWind from/ knotsBaromVisibWave heightAir tempDewpointWater temp
2015-Apr-06 17:11N 45°34' W 122°44'0 0.0
2015-Apr-06 16:33N 45°34' W 122°44'1 1.3
2015-Apr-06 15:33N 45°35' W 122°45'4 4.0
2015-Apr-06 14:33N 45°39' W 122°45'0 0.0
2015-Apr-06 13:34N 45°39' W 122°45'0 0.0
2015-Apr-06 12:34N 45°39' W 122°45'0 0.0
2015-Apr-06 11:33N 45°39' W 122°45'0 0.0
2015-Apr-06 10:30N 45°39' W 122°45'0 0.0
2015-Apr-06 09:33N 45°39' W 122°45'0 0.0
2015-Apr-06 08:33N 45°39' W 122°45'0 0.0
2015-Apr-06 07:33N 45°39' W 122°45'0 0.0
2015-Apr-06 06:33N 45°39' W 122°45'0 0.0
2015-Apr-06 05:33N 45°39' W 122°45'0 0.0
2015-Apr-06 04:33N 45°39' W 122°45'0 0.0
2015-Apr-06 03:34N 45°39' W 122°45'0 0.0
2015-Apr-06 02:33N 45°39' W 122°45'0 0.0
2015-Apr-06 01:33N 45°39' W 122°45'1 1.5
2015-Apr-06 00:34N 45°38' W 122°43'1 0.5
2015-Apr-05 23:33N 45°39' W 122°44'1 1.0
2015-Apr-05 22:34N 45°39' W 122°45'3 2.5
2015-Apr-05 21:34N 45°38' W 122°42'2 1.8
2015-Apr-05 20:33N 45°39' W 122°44'1 0.8
2015-Apr-05 19:33N 45°39' W 122°45'0 0.0
2015-Apr-05 18:33N 45°39' W 122°45'0 0.0
2015-Apr-05 17:33N 45°39' W 122°45'0 0.0
2015-Apr-05 16:33N 45°39' W 122°45'0 0.0
2015-Apr-05 15:33N 45°39' W 122°45'0 0.0
2015-Apr-05 14:33N 45°39' W 122°45'0 0.0
2015-Apr-05 13:33N 45°39' W 122°45'0 0.0
2015-Apr-05 12:33N 45°39' W 122°45'0 0.0
2015-Apr-05 11:33N 45°39' W 122°45'0 0.0
2015-Apr-05 10:33N 45°39' W 122°45'0 0.0
2015-Apr-05 09:33N 45°39' W 122°45'0 0.0
2015-Apr-05 08:33N 45°39' W 122°45'0 0.0
2015-Apr-05 07:33N 45°39' W 122°45'0 0.0
2015-Apr-05 06:33N 45°39' W 122°45'0 0.0
2015-Apr-05 05:33N 45°39' W 122°45'0 0.0
2015-Apr-05 04:33N 45°39' W 122°45'0 0.0
2015-Apr-05 03:33N 45°39' W 122°45'0 0.0
2015-Apr-05 02:33N 45°39' W 122°45'0 0.0
2015-Apr-05 01:33N 45°39' W 122°45'0 0.0
2015-Apr-05 00:33N 45°39' W 122°45'0 0.0
2015-Apr-04 23:33N 45°39' W 122°45'1 1.4
2015-Apr-04 22:33N 45°38' W 122°43'1 1.4
2015-Apr-04 21:33N 45°39' W 122°45'0 0.0
2015-Apr-04 20:33N 45°39' W 122°45'0 0.0
2015-Apr-04 19:33N 45°39' W 122°45'0 0.0
2015-Apr-04 18:33N 45°39' W 122°45'0 0.0
2015-Apr-04 17:33N 45°39' W 122°45'0 0.0
2015-Apr-04 16:33N 45°39' W 122°45'0 0.0
2015-Apr-04 15:33N 45°39' W 122°45'0 0.0
2015-Apr-04 14:33N 45°39' W 122°45'0 0.0
2015-Apr-04 13:34N 45°39' W 122°45'0 0.0
2015-Apr-04 12:33N 45°39' W 122°45'0 0.0
2015-Apr-04 11:33N 45°39' W 122°45'0 0.0
2015-Apr-04 10:33N 45°39' W 122°45'0 0.0
2015-Apr-04 09:33N 45°39' W 122°45'0 0.0
2015-Apr-04 08:33N 45°39' W 122°45'0 0.0
2015-Apr-04 07:33N 45°39' W 122°45'0 0.0
2015-Apr-04 06:33N 45°39' W 122°45'0 0.0
2015-Apr-04 05:33N 45°39' W 122°45'0 0.0
2015-Apr-04 04:32N 45°39' W 122°45'0 0.0
2015-Apr-04 03:33N 45°39' W 122°45'0 0.0
2015-Apr-04 02:33N 45°39' W 122°45'0 0.0
2015-Apr-04 01:33N 45°39' W 122°45'0 0.0
2015-Apr-04 00:33N 45°39' W 122°45'0 0.0
2015-Apr-03 23:33N 45°39' W 122°45'0 0.0
2015-Apr-03 22:33N 45°39' W 122°45'0 0.0
2015-Apr-03 21:33N 45°39' W 122°45'0 0.0
2015-Apr-03 20:33N 45°39' W 122°45'0 0.0
2015-Apr-03 19:33N 45°39' W 122°45'0 0.0
2015-Apr-03 18:33N 45°39' W 122°45'0 0.0
2015-Apr-03 17:33N 45°39' W 122°45'0 0.0
2015-Apr-03 16:33N 45°39' W 122°45'0 0.0
2015-Apr-03 15:33N 45°39' W 122°45'0 0.0
2015-Apr-03 14:33N 45°39' W 122°45'0 0.0
2015-Apr-03 13:33N 45°39' W 122°45'0 0.0
2015-Apr-03 12:33N 45°39' W 122°45'0 0.0
2015-Apr-03 11:33N 45°39' W 122°45'0 0.0
2015-Apr-03 10:33N 45°39' W 122°45'0 0.0
2015-Apr-03 09:33N 45°39' W 122°45'0 0.0
2015-Apr-03 08:33N 45°39' W 122°45'0 0.0
2015-Apr-03 07:33N 45°39' W 122°45'0 0.0
2015-Apr-03 06:33N 45°39' W 122°45'0 0.0
2015-Apr-03 05:33N 45°39' W 122°45'0 0.0
2015-Apr-03 04:33N 45°39' W 122°45'0 0.0
2015-Apr-03 03:33N 45°39' W 122°45'0 0.0
2015-Apr-03 02:33N 45°39' W 122°45'0 0.0
2015-Apr-03 01:33N 45°39' W 122°45'0 0.0
2015-Apr-03 00:33N 45°39' W 122°45'0 0.0
2015-Apr-02 23:33N 45°39' W 122°45'0 0.0
2015-Apr-02 22:33N 45°39' W 122°45'0 0.0
2015-Apr-02 21:33N 45°39' W 122°45'0 0.0
2015-Apr-02 20:33N 45°39' W 122°45'0 0.0
2015-Apr-02 19:33N 45°39' W 122°45'0 0.0
2015-Apr-02 18:33N 45°39' W 122°45'0 0.0
2015-Apr-02 17:33N 45°39' W 122°45'0 0.0
2015-Apr-02 16:33N 45°39' W 122°45'0 0.0
2015-Apr-02 15:33N 45°39' W 122°45'0 0.0
2015-Apr-02 14:33N 45°39' W 122°45'0 0.0
2015-Apr-02 13:33N 45°39' W 122°45'0 0.0
2015-Apr-02 12:33N 45°39' W 122°45'0 0.0
2015-Apr-02 11:33N 45°39' W 122°45'0 0.0
2015-Apr-02 10:33N 45°39' W 122°45'0 0.0
2015-Apr-02 09:33N 45°39' W 122°45'0 0.0
2015-Apr-02 08:33N 45°39' W 122°45'0 0.0
2015-Apr-02 07:33N 45°39' W 122°45'0 0.0
2015-Apr-02 06:33N 45°39' W 122°45'0 0.0
2015-Apr-02 05:33N 45°39' W 122°45'0 0.0
2015-Apr-02 04:33N 45°39' W 122°45'0 0.0
2015-Apr-02 03:33N 45°39' W 122°45'0 0.0
2015-Apr-02 02:33N 45°39' W 122°45'0 0.0
2015-Apr-02 01:33N 45°39' W 122°45'0 0.0
2015-Apr-02 00:33N 45°39' W 122°45'0 0.0
2015-Apr-01 23:34N 45°39' W 122°45'0 0.0
2015-Apr-01 22:33N 45°39' W 122°45'0 0.0
2015-Apr-01 21:34N 45°39' W 122°45'0 0.0
2015-Apr-01 20:33N 45°39' W 122°45'0 0.0
2015-Apr-01 19:33N 45°39' W 122°45'0 0.0
2015-Apr-01 18:33N 45°39' W 122°45'0 0.0
2015-Apr-01 17:33N 45°39' W 122°45'0 0.0
2015-Apr-01 16:33N 45°39' W 122°45'0 0.0
2015-Apr-01 15:33N 45°39' W 122°45'0 0.0
2015-Apr-01 14:33N 45°39' W 122°45'0 0.0
2015-Apr-01 13:33N 45°39' W 122°45'0 0.0
2015-Apr-01 12:33N 45°39' W 122°45'0 0.0
2015-Apr-01 11:33N 45°39' W 122°45'0 0.0
2015-Apr-01 10:33N 45°39' W 122°45'0 0.0
2015-Apr-01 09:33N 45°39' W 122°45'0 0.0
2015-Apr-01 08:33N 45°39' W 122°45'0 0.0
2015-Apr-01 07:33N 45°39' W 122°45'0 0.0
2015-Apr-01 06:33N 45°39' W 122°45'0 0.0
2015-Apr-01 05:33N 45°39' W 122°45'0 0.0
2015-Apr-01 04:33N 45°39' W 122°45'0 0.0
2015-Apr-01 03:33N 45°39' W 122°45'0 0.0
2015-Apr-01 02:33N 45°39' W 122°45'0 0.0
2015-Apr-01 01:33N 45°39' W 122°45'0 0.0
2015-Apr-01 00:33N 45°39' W 122°45'0 0.0
2015-Mar-31 23:33N 45°39' W 122°45'0 0.0
2015-Mar-31 22:33N 45°39' W 122°45'0 0.0
2015-Mar-31 21:33N 45°39' W 122°45'0 0.0
2015-Mar-31 20:33N 45°39' W 122°45'0 0.0
2015-Mar-31 19:33N 45°39' W 122°45'0 0.0
2015-Mar-31 18:33N 45°39' W 122°45'0 0.0
2015-Mar-31 17:33N 45°39' W 122°45'0 0.0
2015-Mar-31 16:33N 45°39' W 122°45'0 0.0
2015-Mar-31 15:33N 45°39' W 122°45'0 0.1
2015-Mar-31 14:33N 45°39' W 122°45'2 2.1
2015-Mar-31 13:33N 45°38' W 122°42'2 2.1
2015-Mar-31 12:33N 45°39' W 122°45'0 0.0
2015-Mar-31 11:33N 45°39' W 122°45'0 0.0
2015-Mar-31 10:33N 45°39' W 122°45'0 0.0
2015-Mar-31 09:33N 45°39' W 122°45'0 0.0
2015-Mar-31 08:33N 45°39' W 122°45'0 0.0
2015-Mar-31 07:33N 45°39' W 122°45'0 0.0
2015-Mar-31 06:33N 45°39' W 122°45'0 0.0
2015-Mar-31 05:33N 45°39' W 122°45'0 0.0
2015-Mar-31 04:33N 45°39' W 122°45'0 0.0
2015-Mar-31 03:33N 45°39' W 122°45'0 0.0
2015-Mar-31 02:33N 45°39' W 122°45'0 0.0
2015-Mar-31 01:33N 45°39' W 122°45'0 0.0
2015-Mar-31 00:33N 45°39' W 122°45'0 0.0
2015-Mar-30 23:33N 45°39' W 122°45'0 0.0
2015-Mar-30 22:33N 45°39' W 122°45'0 0.0
2015-Mar-30 21:33N 45°39' W 122°45'0 0.0
2015-Mar-30 20:33N 45°39' W 122°45'0 0.0
2015-Mar-30 19:33N 45°39' W 122°45'0 0.0
2015-Mar-30 18:33N 45°39' W 122°45'0 0.0
2015-Mar-30 17:33N 45°39' W 122°45'0 0.0
2015-Mar-30 16:33N 45°39' W 122°45'0 0.0
2015-Mar-30 15:33N 45°39' W 122°45'0 0.0
2015-Mar-30 14:33N 45°39' W 122°45'0 0.0
2015-Mar-30 13:33N 45°39' W 122°45'0 0.0
2015-Mar-30 12:33N 45°39' W 122°45'0 0.0
2015-Mar-30 11:33N 45°39' W 122°45'0 0.0
2015-Mar-30 10:33N 45°39' W 122°45'0 0.0
2015-Mar-30 09:33N 45°39' W 122°45'0 0.0
2015-Mar-30 08:33N 45°39' W 122°45'0 0.0
2015-Mar-30 07:33N 45°39' W 122°45'0 0.0
2015-Mar-30 06:33N 45°39' W 122°45'0 0.3
2015-Mar-30 05:33N 45°39' W 122°45'1 1.3
2015-Mar-30 04:33N 45°38' W 122°47'1 1.2
2015-Mar-30 03:33N 45°39' W 122°45'0 0.0
2015-Mar-30 02:33N 45°39' W 122°45'0 0.0
2015-Mar-30 01:33N 45°39' W 122°45'0 0.0
2015-Mar-30 00:33N 45°39' W 122°45'0 0.0
2015-Mar-29 23:33N 45°39' W 122°45'0 0.0
2015-Mar-29 22:33N 45°39' W 122°45'0 0.0
2015-Mar-29 21:33N 45°39' W 122°45'0 0.0
2015-Mar-29 20:33N 45°39' W 122°45'0 0.0
2015-Mar-29 19:33N 45°39' W 122°45'0 0.0
2015-Mar-29 18:33N 45°39' W 122°45'0 0.0
2015-Mar-29 17:33N 45°39' W 122°45'0 0.0
2015-Mar-29 16:33N 45°39' W 122°45'0 0.0
2015-Mar-29 15:33N 45°39' W 122°45'0 0.0
2015-Mar-29 14:33N 45°39' W 122°45'0 0.0
2015-Mar-29 13:33N 45°39' W 122°45'0 0.0
2015-Mar-29 12:33N 45°39' W 122°45'0 0.0
2015-Mar-29 11:33N 45°39' W 122°45'0 0.0
2015-Mar-29 10:33N 45°39' W 122°45'0 0.0
2015-Mar-29 09:33N 45°39' W 122°45'0 0.0
2015-Mar-29 08:33N 45°39' W 122°45'0 0.0
2015-Mar-29 07:33N 45°39' W 122°45'0 0.0
2015-Mar-29 06:33N 45°39' W 122°45'0 0.0
2015-Mar-29 05:33N 45°39' W 122°45'0 0.0
2015-Mar-29 04:33N 45°39' W 122°45'0 0.0
2015-Mar-29 03:33N 45°39' W 122°45'0 0.0
2015-Mar-29 02:33N 45°39' W 122°45'2 2.5
2015-Mar-29 01:33N 45°38' W 122°42'2 1.9
2015-Mar-29 00:33N 45°39' W 122°44'1 0.6
2015-Mar-28 23:33N 45°39' W 122°45'0 0.0
2015-Mar-28 22:33N 45°39' W 122°45'0 0.0
2015-Mar-28 21:33N 45°39' W 122°45'0 0.0
2015-Mar-28 20:33N 45°39' W 122°45'0 0.0
2015-Mar-28 19:33N 45°39' W 122°45'0 0.0
2015-Mar-28 18:33N 45°39' W 122°45'0 0.0
2015-Mar-28 17:33N 45°39' W 122°45'0 0.0
2015-Mar-28 16:33N 45°39' W 122°45'0 0.0
2015-Mar-28 15:33N 45°39' W 122°45'1 0.9
2015-Mar-28 14:33N 45°39' W 122°46'1 0.8
2015-Mar-28 13:33N 45°39' W 122°45'0 0.0
2015-Mar-28 12:33N 45°39' W 122°45'0 0.0
2015-Mar-28 11:33N 45°39' W 122°45'0 0.0
2015-Mar-28 10:33N 45°39' W 122°45'0 0.0
2015-Mar-28 09:33N 45°39' W 122°45'0 0.0
2015-Mar-28 08:33N 45°39' W 122°45'0 0.0
2015-Mar-28 07:33N 45°39' W 122°45'0 0.0
2015-Mar-28 06:33N 45°39' W 122°45'0 0.0
2015-Mar-28 05:33N 45°39' W 122°45'0 0.0
2015-Mar-28 04:33N 45°39' W 122°45'0 0.0
2015-Mar-28 03:33N 45°39' W 122°45'0 0.0
2015-Mar-28 02:33N 45°39' W 122°45'0 0.0
2015-Mar-28 01:33N 45°39' W 122°45'0 0.0
2015-Mar-28 00:33N 45°39' W 122°45'0 0.0
2015-Mar-27 23:33N 45°39' W 122°45'0 0.0
2015-Mar-27 22:33N 45°39' W 122°45'0 0.0
2015-Mar-27 21:33N 45°39' W 122°45'0 0.0
2015-Mar-27 20:33N 45°39' W 122°45'0 0.0
2015-Mar-27 19:33N 45°39' W 122°45'0 0.0
2015-Mar-27 18:33N 45°39' W 122°45'0 0.0
2015-Mar-27 17:33N 45°39' W 122°45'  

Dump ship's entire track history